Jennie B — MCQV9 — position and weather

sailwx.info

Track history (hours):
 
Tides and Currents Weather Stations Pressure Air Temp Water Temp Dewpoint Dewpoint Depression Visibility Wind Speed Wind Dir Waves Ship Positions

Jennie B

Last reported at 2018-May-23 15:57 UTC. Time now 2018-Jun-18 02:11 UTC.
Position N 47°33' W 002°54'.
Warning: this ship's position is 25 days out of date.

Length 12 m.

Type: Sailing vessel. MMSI: 235013585.

Date/timePositionNaut miles runAvg speedWind from/ knotsBaromVisibWave heightAir tempDewpointWater temp
2018-May-23 15:57N 47°33' W 002°54'0 0.1
2018-May-23 15:29N 47°33' W 002°54'1 2.3
2018-May-23 15:00N 47°32' W 002°54'2 4.6
2018-May-23 14:30N 47°29' W 002°53'3 5.1
2018-May-23 13:59N 47°29' W 002°49'3 5.1
2018-May-23 13:30N 47°28' W 002°46'3 5.5
2018-May-23 13:00N 47°28' W 002°42'2 4.4
2018-May-23 12:30N 47°28' W 002°38'1 2.6
2018-May-23 12:00N 47°29' W 002°37'2 3.5
2018-May-23 11:29N 47°29' W 002°34'2 4.5
2018-May-23 11:00N 47°30' W 002°31'3 3.9
2018-May-23 10:18N 47°30' W 002°27'2 0.1
2018-May-22 09:40N 47°30' W 002°30'2 4.7
2018-May-22 09:20N 47°29' W 002°32'2 4.8
2018-May-22 08:59N 47°27' W 002°33'3 4.8
2018-May-22 08:20N 47°24' W 002°33'5 0.1
2018-May-20 14:22N 47°24' W 002°40'2 4.7
2018-May-20 14:00N 47°24' W 002°43'3 4.7
2018-May-20 13:27N 47°24' W 002°46'2 4.7
2018-May-20 13:00N 47°25' W 002°50'3 4.6
2018-May-20 12:20N 47°27' W 002°53'2 4.7
2018-May-20 11:59N 47°28' W 002°55'3 2.9
2018-May-20 11:01N 47°30' W 002°57'0 2.6
2018-May-20 10:57N 47°30' W 002°57'2 3.5
2018-May-20 10:30N 47°31' W 002°59'2 3.4
2018-May-20 09:58N 47°33' W 003°00'2 4.0
2018-May-20 09:27N 47°35' W 003°01'0 0.7
2018-May-20 08:58N 47°35' W 003°02'0 0.0
2018-May-18 11:52N 47°35' W 003°02'0 0.1
2018-May-18 11:22N 47°35' W 003°01'1 3.4
2018-May-18 11:00N 47°34' W 003°01'1 2.9
2018-May-18 10:30N 47°33' W 002°60'1 3.0
2018-May-18 10:00N 47°32' W 002°59'2 3.7
2018-May-18 09:30N 47°31' W 002°56'2 3.6
2018-May-18 09:00N 47°32' W 002°55'  
2018-May-14 08:57N 47°33' W 002°54'0 0.0
2018-May-14 08:30N 47°33' W 002°54'2 3.7
2018-May-14 08:00N 47°34' W 002°55'3 5.4
2018-May-14 07:30N 47°36' W 002°57'2 3.4
2018-May-14 06:59N 47°38' W 002°58'  
Track history (hours):
 
Tides and Currents Weather Stations Pressure Air Temp Water Temp Dewpoint Dewpoint Depression Visibility Wind Speed Wind Dir Waves Ship Positions

Jennie B

Last reported at 2018-May-23 15:57 UTC. Time now 2018-Jun-18 02:11 UTC.
Position N 47°33' W 002°54'.
Warning: this ship's position is 25 days out of date.

Length 12 m.

Type: Sailing vessel. MMSI: 235013585.

Date/timePositionNaut miles runAvg speedWind from/ knotsBaromVisibWave heightAir tempDewpointWater temp
2018-May-23 15:57N 47°33' W 002°54'0 0.1
2018-May-23 15:29N 47°33' W 002°54'1 2.3
2018-May-23 15:00N 47°32' W 002°54'2 4.6
2018-May-23 14:30N 47°29' W 002°53'3 5.1
2018-May-23 13:59N 47°29' W 002°49'3 5.1
2018-May-23 13:30N 47°28' W 002°46'3 5.5
2018-May-23 13:00N 47°28' W 002°42'2 4.4
2018-May-23 12:30N 47°28' W 002°38'1 2.6
2018-May-23 12:00N 47°29' W 002°37'2 3.5
2018-May-23 11:29N 47°29' W 002°34'2 4.5
2018-May-23 11:00N 47°30' W 002°31'3 3.9
2018-May-23 10:18N 47°30' W 002°27'2 0.1
2018-May-22 09:40N 47°30' W 002°30'2 4.7
2018-May-22 09:20N 47°29' W 002°32'2 4.8
2018-May-22 08:59N 47°27' W 002°33'3 4.8
2018-May-22 08:20N 47°24' W 002°33'5 0.1
2018-May-20 14:22N 47°24' W 002°40'2 4.7
2018-May-20 14:00N 47°24' W 002°43'3 4.7
2018-May-20 13:27N 47°24' W 002°46'2 4.7
2018-May-20 13:00N 47°25' W 002°50'3 4.6
2018-May-20 12:20N 47°27' W 002°53'2 4.7
2018-May-20 11:59N 47°28' W 002°55'3 2.9
2018-May-20 11:01N 47°30' W 002°57'0 2.6
2018-May-20 10:57N 47°30' W 002°57'2 3.5
2018-May-20 10:30N 47°31' W 002°59'2 3.4
2018-May-20 09:58N 47°33' W 003°00'2 4.0
2018-May-20 09:27N 47°35' W 003°01'0 0.7
2018-May-20 08:58N 47°35' W 003°02'0 0.0
2018-May-18 11:52N 47°35' W 003°02'0 0.1
2018-May-18 11:22N 47°35' W 003°01'1 3.4
2018-May-18 11:00N 47°34' W 003°01'1 2.9
2018-May-18 10:30N 47°33' W 002°60'1 3.0
2018-May-18 10:00N 47°32' W 002°59'2 3.7
2018-May-18 09:30N 47°31' W 002°56'2 3.6
2018-May-18 09:00N 47°32' W 002°55'  
2018-May-14 08:57N 47°33' W 002°54'0 0.0
2018-May-14 08:30N 47°33' W 002°54'2 3.7
2018-May-14 08:00N 47°34' W 002°55'3 5.4
2018-May-14 07:30N 47°36' W 002°57'2 3.4
2018-May-14 06:59N 47°38' W 002°58'  

Dump ship's entire track history